sensor_id;sensor_type;location;lat;lon;timestamp;temperature;humidity
32660;DHT22;19064;47.912;12.308;2023-03-31T00:01:16;7.50;99.90
32660;DHT22;19064;47.912;12.308;2023-03-31T00:03:44;7.50;99.90
32660;DHT22;19064;47.912;12.308;2023-03-31T00:06:11;7.40;99.90
32660;DHT22;19064;47.912;12.308;2023-03-31T00:08:42;7.40;99.90
32660;DHT22;19064;47.912;12.308;2023-03-31T00:11:10;7.40;99.90
32660;DHT22;19064;47.912;12.308;2023-03-31T00:13:38;7.50;99.90
32660;DHT22;19064;47.912;12.308;2023-03-31T00:16:06;7.50;99.90
32660;DHT22;19064;47.912;12.308;2023-03-31T00:18:34;7.50;99.90
32660;DHT22;19064;47.912;12.308;2023-03-31T00:21:06;7.40;99.90
32660;DHT22;19064;47.912;12.308;2023-03-31T00:23:33;7.50;99.90
32660;DHT22;19064;47.912;12.308;2023-03-31T00:26:00;7.50;99.90
32660;DHT22;19064;47.912;12.308;2023-03-31T00:28:28;7.60;99.90
32660;DHT22;19064;47.912;12.308;2023-03-31T00:30:59;7.60;99.90
32660;DHT22;19064;47.912;12.308;2023-03-31T00:33:26;7.60;99.90
32660;DHT22;19064;47.912;12.308;2023-03-31T00:35:54;7.60;99.90
32660;DHT22;19064;47.912;12.308;2023-03-31T00:38:21;7.50;99.90
32660;DHT22;19064;47.912;12.308;2023-03-31T00:40:47;7.30;99.90
32660;DHT22;19064;47.912;12.308;2023-03-31T00:43:25;7.40;99.90
32660;DHT22;19064;47.912;12.308;2023-03-31T00:45:55;7.40;99.90
32660;DHT22;19064;47.912;12.308;2023-03-31T00:48:26;7.50;99.90
32660;DHT22;19064;47.912;12.308;2023-03-31T00:50:55;7.40;99.90
32660;DHT22;19064;47.912;12.308;2023-03-31T00:53:26;7.30;99.90
32660;DHT22;19064;47.912;12.308;2023-03-31T00:55:58;7.10;99.90
32660;DHT22;19064;47.912;12.308;2023-03-31T00:58:26;7.00;99.90
32660;DHT22;19064;47.912;12.308;2023-03-31T01:00:57;7.00;99.90
32660;DHT22;19064;47.912;12.308;2023-03-31T01:03:24;7.10;99.90
32660;DHT22;19064;47.912;12.308;2023-03-31T01:05:53;7.10;99.90
32660;DHT22;19064;47.912;12.308;2023-03-31T01:08:24;7.20;99.90
32660;DHT22;19064;47.912;12.308;2023-03-31T01:10:53;7.20;99.90
32660;DHT22;19064;47.912;12.308;2023-03-31T01:13:22;7.40;99.90
32660;DHT22;19064;47.912;12.308;2023-03-31T01:15:50;7.50;99.90
32660;DHT22;19064;47.912;12.308;2023-03-31T01:18:20;7.50;99.90
32660;DHT22;19064;47.912;12.308;2023-03-31T01:21:16;7.50;99.90
32660;DHT22;19064;47.912;12.308;2023-03-31T01:27:14;7.40;99.90
32660;DHT22;19064;47.912;12.308;2023-03-31T01:30:10;7.60;99.90
32660;DHT22;19064;47.912;12.308;2023-03-31T01:33:20;7.80;99.90
32660;DHT22;19064;47.912;12.308;2023-03-31T01:36:15;7.90;99.90
32660;DHT22;19064;47.912;12.308;2023-03-31T01:39:10;7.80;99.90
32660;DHT22;19064;47.912;12.308;2023-03-31T01:41:46;7.70;99.90
32660;DHT22;19064;47.912;12.308;2023-03-31T01:44:21;7.70;99.90
32660;DHT22;19064;47.912;12.308;2023-03-31T01:46:54;7.70;99.90
32660;DHT22;19064;47.912;12.308;2023-03-31T01:49:24;7.70;99.90
32660;DHT22;19064;47.912;12.308;2023-03-31T01:51:59;7.80;99.90
32660;DHT22;19064;47.912;12.308;2023-03-31T01:54:31;7.80;99.90
32660;DHT22;19064;47.912;12.308;2023-03-31T01:57:10;7.80;99.90
32660;DHT22;19064;47.912;12.308;2023-03-31T01:59:42;7.90;99.90
32660;DHT22;19064;47.912;12.308;2023-03-31T02:02:13;7.90;99.90
32660;DHT22;19064;47.912;12.308;2023-03-31T02:04:47;7.80;99.90
32660;DHT22;19064;47.912;12.308;2023-03-31T02:07:18;7.90;99.90
32660;DHT22;19064;47.912;12.308;2023-03-31T02:09:48;7.70;99.90
32660;DHT22;19064;47.912;12.308;2023-03-31T02:12:19;7.80;99.90
32660;DHT22;19064;47.912;12.308;2023-03-31T02:14:49;7.60;99.90
32660;DHT22;19064;47.912;12.308;2023-03-31T02:17:21;7.60;99.90
32660;DHT22;19064;47.912;12.308;2023-03-31T02:19:57;7.40;99.90
32660;DHT22;19064;47.912;12.308;2023-03-31T02:22:28;7.40;99.90
32660;DHT22;19064;47.912;12.308;2023-03-31T02:24:56;7.40;99.90
32660;DHT22;19064;47.912;12.308;2023-03-31T02:27:27;7.40;99.90
32660;DHT22;19064;47.912;12.308;2023-03-31T02:29:56;7.40;99.90
32660;DHT22;19064;47.912;12.308;2023-03-31T02:32:28;7.40;99.90
32660;DHT22;19064;47.912;12.308;2023-03-31T02:34:57;7.40;99.90
32660;DHT22;19064;47.912;12.308;2023-03-31T02:37:26;7.40;99.90
32660;DHT22;19064;47.912;12.308;2023-03-31T02:39:56;7.50;99.90
32660;DHT22;19064;47.912;12.308;2023-03-31T02:42:25;7.50;99.90
32660;DHT22;19064;47.912;12.308;2023-03-31T02:44:51;7.50;99.90
32660;DHT22;19064;47.912;12.308;2023-03-31T02:47:20;7.50;99.90
32660;DHT22;19064;47.912;12.308;2023-03-31T02:49:49;7.60;99.90
32660;DHT22;19064;47.912;12.308;2023-03-31T02:52:26;7.60;99.90
32660;DHT22;19064;47.912;12.308;2023-03-31T02:55:26;7.60;99.90
32660;DHT22;19064;47.912;12.308;2023-03-31T02:58:18;7.70;99.90
32660;DHT22;19064;47.912;12.308;2023-03-31T03:01:05;7.90;99.90
32660;DHT22;19064;47.912;12.308;2023-03-31T03:03:41;8.00;99.90
32660;DHT22;19064;47.912;12.308;2023-03-31T03:06:19;8.00;99.90
32660;DHT22;19064;47.912;12.308;2023-03-31T03:09:01;8.10;99.90
32660;DHT22;19064;47.912;12.308;2023-03-31T03:11:37;8.00;99.90
32660;DHT22;19064;47.912;12.308;2023-03-31T03:14:11;8.10;99.90
32660;DHT22;19064;47.912;12.308;2023-03-31T03:16:43;8.00;99.90
32660;DHT22;19064;47.912;12.308;2023-03-31T03:19:17;8.00;99.90
32660;DHT22;19064;47.912;12.308;2023-03-31T03:21:45;7.90;99.90
32660;DHT22;19064;47.912;12.308;2023-03-31T03:24:12;7.60;99.90
32660;DHT22;19064;47.912;12.308;2023-03-31T03:26:40;7.50;99.90
32660;DHT22;19064;47.912;12.308;2023-03-31T03:29:08;7.40;99.90
32660;DHT22;19064;47.912;12.308;2023-03-31T03:31:36;7.40;99.90
32660;DHT22;19064;47.912;12.308;2023-03-31T03:34:03;7.50;99.90
32660;DHT22;19064;47.912;12.308;2023-03-31T03:36:31;7.50;99.90
32660;DHT22;19064;47.912;12.308;2023-03-31T03:38:58;7.40;99.90
32660;DHT22;19064;47.912;12.308;2023-03-31T03:41:25;7.40;99.90
32660;DHT22;19064;47.912;12.308;2023-03-31T03:43:51;7.40;99.90
32660;DHT22;19064;47.912;12.308;2023-03-31T03:46:20;7.40;99.90
32660;DHT22;19064;47.912;12.308;2023-03-31T03:48:46;7.40;99.90
32660;DHT22;19064;47.912;12.308;2023-03-31T03:51:13;7.40;99.90
32660;DHT22;19064;47.912;12.308;2023-03-31T03:53:40;7.40;99.90
32660;DHT22;19064;47.912;12.308;2023-03-31T03:56:07;7.50;99.90
32660;DHT22;19064;47.912;12.308;2023-03-31T03:58:34;7.50;99.90
32660;DHT22;19064;47.912;12.308;2023-03-31T04:01:01;7.50;99.90
32660;DHT22;19064;47.912;12.308;2023-03-31T04:03:30;7.50;99.90
32660;DHT22;19064;47.912;12.308;2023-03-31T04:05:57;7.50;99.90
32660;DHT22;19064;47.912;12.308;2023-03-31T04:08:23;7.60;99.90
32660;DHT22;19064;47.912;12.308;2023-03-31T04:10:52;7.60;99.90
32660;DHT22;19064;47.912;12.308;2023-03-31T04:13:18;7.80;99.90
32660;DHT22;19064;47.912;12.308;2023-03-31T04:15:45;7.90;99.90
32660;DHT22;19064;47.912;12.308;2023-03-31T04:18:12;7.80;99.90
32660;DHT22;19064;47.912;12.308;2023-03-31T04:20:45;7.90;99.90
32660;DHT22;19064;47.912;12.308;2023-03-31T04:23:19;8.00;99.90
32660;DHT22;19064;47.912;12.308;2023-03-31T04:25:49;7.90;99.90
32660;DHT22;19064;47.912;12.308;2023-03-31T04:28:25;7.80;99.90
32660;DHT22;19064;47.912;12.308;2023-03-31T04:31:00;7.80;99.90
32660;DHT22;19064;47.912;12.308;2023-03-31T04:33:28;7.70;99.90
32660;DHT22;19064;47.912;12.308;2023-03-31T04:36:01;7.70;99.90
32660;DHT22;19064;47.912;12.308;2023-03-31T04:38:32;7.70;99.90
32660;DHT22;19064;47.912;12.308;2023-03-31T04:40:59;7.70;99.90
32660;DHT22;19064;47.912;12.308;2023-03-31T04:43:26;7.70;99.90
32660;DHT22;19064;47.912;12.308;2023-03-31T04:45:52;7.70;99.90
32660;DHT22;19064;47.912;12.308;2023-03-31T04:48:19;7.70;99.90
32660;DHT22;19064;47.912;12.308;2023-03-31T04:50:46;7.70;99.90
32660;DHT22;19064;47.912;12.308;2023-03-31T04:53:14;7.70;99.90
32660;DHT22;19064;47.912;12.308;2023-03-31T04:55:41;7.70;99.90
32660;DHT22;19064;47.912;12.308;2023-03-31T04:58:07;7.70;99.90
32660;DHT22;19064;47.912;12.308;2023-03-31T05:00:34;7.60;99.90
32660;DHT22;19064;47.912;12.308;2023-03-31T05:03:01;7.60;99.90
32660;DHT22;19064;47.912;12.308;2023-03-31T05:05:27;7.50;99.90
32660;DHT22;19064;47.912;12.308;2023-03-31T05:07:54;7.50;99.90
32660;DHT22;19064;47.912;12.308;2023-03-31T05:10:23;7.50;99.90
32660;DHT22;19064;47.912;12.308;2023-03-31T05:12:50;7.50;99.90
32660;DHT22;19064;47.912;12.308;2023-03-31T05:15:17;7.50;99.90
32660;DHT22;19064;47.912;12.308;2023-03-31T05:17:43;7.60;99.90
32660;DHT22;19064;47.912;12.308;2023-03-31T05:20:11;7.50;99.90
32660;DHT22;19064;47.912;12.308;2023-03-31T05:22:39;7.50;99.90
32660;DHT22;19064;47.912;12.308;2023-03-31T05:25:08;7.40;99.90
32660;DHT22;19064;47.912;12.308;2023-03-31T05:27:37;7.60;99.90
32660;DHT22;19064;47.912;12.308;2023-03-31T05:30:05;7.60;99.90
32660;DHT22;19064;47.912;12.308;2023-03-31T05:32:32;7.60;99.90
32660;DHT22;19064;47.912;12.308;2023-03-31T05:34:59;7.60;99.90
32660;DHT22;19064;47.912;12.308;2023-03-31T05:37:26;7.60;99.90
32660;DHT22;19064;47.912;12.308;2023-03-31T05:39:53;7.50;99.90
32660;DHT22;19064;47.912;12.308;2023-03-31T05:42:19;7.60;99.90
32660;DHT22;19064;47.912;12.308;2023-03-31T05:44:47;7.60;99.90
32660;DHT22;19064;47.912;12.308;2023-03-31T05:47:14;7.70;99.90
32660;DHT22;19064;47.912;12.308;2023-03-31T05:49:41;7.80;99.90
32660;DHT22;19064;47.912;12.308;2023-03-31T05:52:09;7.90;99.90
32660;DHT22;19064;47.912;12.308;2023-03-31T05:54:36;7.90;99.90
32660;DHT22;19064;47.912;12.308;2023-03-31T05:57:03;8.00;99.90
32660;DHT22;19064;47.912;12.308;2023-03-31T05:59:30;8.00;99.90
32660;DHT22;19064;47.912;12.308;2023-03-31T06:02:00;8.10;99.90
32660;DHT22;19064;47.912;12.308;2023-03-31T06:04:27;8.10;99.90
32660;DHT22;19064;47.912;12.308;2023-03-31T06:06:55;8.00;99.90
32660;DHT22;19064;47.912;12.308;2023-03-31T06:09:22;8.10;99.90
32660;DHT22;19064;47.912;12.308;2023-03-31T06:11:49;8.20;99.90
32660;DHT22;19064;47.912;12.308;2023-03-31T06:14:16;8.10;99.90
32660;DHT22;19064;47.912;12.308;2023-03-31T06:16:43;8.20;99.90
32660;DHT22;19064;47.912;12.308;2023-03-31T06:19:13;8.30;99.90
32660;DHT22;19064;47.912;12.308;2023-03-31T06:21:40;8.30;99.90
32660;DHT22;19064;47.912;12.308;2023-03-31T06:24:08;8.40;99.90
32660;DHT22;19064;47.912;12.308;2023-03-31T06:26:35;8.40;99.90
32660;DHT22;19064;47.912;12.308;2023-03-31T06:29:01;8.50;99.90
32660;DHT22;19064;47.912;12.308;2023-03-31T06:31:28;8.50;99.90
32660;DHT22;19064;47.912;12.308;2023-03-31T06:33:55;8.60;99.90
32660;DHT22;19064;47.912;12.308;2023-03-31T06:36:23;8.70;99.90
32660;DHT22;19064;47.912;12.308;2023-03-31T06:38:50;8.70;99.90
32660;DHT22;19064;47.912;12.308;2023-03-31T06:41:17;8.80;99.90
32660;DHT22;19064;47.912;12.308;2023-03-31T06:43:45;8.80;99.90
32660;DHT22;19064;47.912;12.308;2023-03-31T06:46:12;8.90;99.90
32660;DHT22;19064;47.912;12.308;2023-03-31T06:48:38;9.00;99.90
32660;DHT22;19064;47.912;12.308;2023-03-31T06:51:06;9.10;99.90
32660;DHT22;19064;47.912;12.308;2023-03-31T06:53:35;9.20;99.90
32660;DHT22;19064;47.912;12.308;2023-03-31T06:56:02;9.30;99.90
32660;DHT22;19064;47.912;12.308;2023-03-31T06:58:29;9.40;99.90
32660;DHT22;19064;47.912;12.308;2023-03-31T07:00:56;9.50;99.90
32660;DHT22;19064;47.912;12.308;2023-03-31T07:03:22;9.50;99.90
32660;DHT22;19064;47.912;12.308;2023-03-31T07:05:50;9.50;99.90
32660;DHT22;19064;47.912;12.308;2023-03-31T07:08:18;9.50;99.90
32660;DHT22;19064;47.912;12.308;2023-03-31T07:10:47;9.40;99.90
32660;DHT22;19064;47.912;12.308;2023-03-31T07:13:15;9.50;99.90
32660;DHT22;19064;47.912;12.308;2023-03-31T07:15:42;9.50;99.90
32660;DHT22;19064;47.912;12.308;2023-03-31T07:18:09;9.60;99.90
32660;DHT22;19064;47.912;12.308;2023-03-31T07:20:37;9.80;99.90
32660;DHT22;19064;47.912;12.308;2023-03-31T07:23:04;10.00;99.90
32660;DHT22;19064;47.912;12.308;2023-03-31T07:25:33;10.10;99.90
32660;DHT22;19064;47.912;12.308;2023-03-31T07:28:02;10.30;99.90
32660;DHT22;19064;47.912;12.308;2023-03-31T07:30:30;10.40;99.90
32660;DHT22;19064;47.912;12.308;2023-03-31T07:32:57;10.30;99.90
32660;DHT22;19064;47.912;12.308;2023-03-31T07:35:23;10.40;99.90
32660;DHT22;19064;47.912;12.308;2023-03-31T07:37:51;10.30;99.90
32660;DHT22;19064;47.912;12.308;2023-03-31T07:40:20;10.30;99.90
32660;DHT22;19064;47.912;12.308;2023-03-31T07:42:48;10.10;99.90
32660;DHT22;19064;47.912;12.308;2023-03-31T07:45:19;10.00;99.90
32660;DHT22;19064;47.912;12.308;2023-03-31T07:47:45;10.00;99.90
32660;DHT22;19064;47.912;12.308;2023-03-31T07:50:13;9.90;99.90
32660;DHT22;19064;47.912;12.308;2023-03-31T07:52:40;9.80;99.90
32660;DHT22;19064;47.912;12.308;2023-03-31T07:55:08;9.70;99.90
32660;DHT22;19064;47.912;12.308;2023-03-31T07:57:35;9.70;99.90
32660;DHT22;19064;47.912;12.308;2023-03-31T08:00:03;9.60;99.90
32660;DHT22;19064;47.912;12.308;2023-03-31T08:02:33;9.60;99.90
32660;DHT22;19064;47.912;12.308;2023-03-31T08:05:00;9.40;99.90
32660;DHT22;19064;47.912;12.308;2023-03-31T08:07:27;9.40;99.90
32660;DHT22;19064;47.912;12.308;2023-03-31T08:09:55;9.30;99.90
32660;DHT22;19064;47.912;12.308;2023-03-31T08:12:22;9.30;99.90
32660;DHT22;19064;47.912;12.308;2023-03-31T08:14:49;9.20;99.90
32660;DHT22;19064;47.912;12.308;2023-03-31T08:17:16;9.20;99.90
32660;DHT22;19064;47.912;12.308;2023-03-31T08:19:44;9.20;99.90
32660;DHT22;19064;47.912;12.308;2023-03-31T08:22:11;9.20;99.90
32660;DHT22;19064;47.912;12.308;2023-03-31T08:24:37;9.20;99.90
32660;DHT22;19064;47.912;12.308;2023-03-31T08:27:04;9.20;99.90
32660;DHT22;19064;47.912;12.308;2023-03-31T08:29:31;9.20;99.90
32660;DHT22;19064;47.912;12.308;2023-03-31T08:31:58;9.30;99.90
32660;DHT22;19064;47.912;12.308;2023-03-31T08:34:25;9.30;99.90
32660;DHT22;19064;47.912;12.308;2023-03-31T08:36:54;9.30;99.90
32660;DHT22;19064;47.912;12.308;2023-03-31T08:39:21;9.30;99.90
32660;DHT22;19064;47.912;12.308;2023-03-31T08:41:54;9.30;99.90
32660;DHT22;19064;47.912;12.308;2023-03-31T08:44:28;9.30;99.90
32660;DHT22;19064;47.912;12.308;2023-03-31T08:46:59;9.40;99.90
32660;DHT22;19064;47.912;12.308;2023-03-31T08:49:28;9.40;99.90
32660;DHT22;19064;47.912;12.308;2023-03-31T08:52:00;9.50;99.90
32660;DHT22;19064;47.912;12.308;2023-03-31T08:54:31;9.60;99.90
32660;DHT22;19064;47.912;12.308;2023-03-31T08:56:59;9.60;99.90
32660;DHT22;19064;47.912;12.308;2023-03-31T08:59:29;9.70;99.90
32660;DHT22;19064;47.912;12.308;2023-03-31T09:02:01;9.70;99.90
32660;DHT22;19064;47.912;12.308;2023-03-31T09:04:45;9.70;99.90
32660;DHT22;19064;47.912;12.308;2023-03-31T09:07:20;9.70;99.90
32660;DHT22;19064;47.912;12.308;2023-03-31T09:09:59;9.70;99.90
32660;DHT22;19064;47.912;12.308;2023-03-31T09:12:34;9.60;99.90
32660;DHT22;19064;47.912;12.308;2023-03-31T09:15:07;9.70;99.90
32660;DHT22;19064;47.912;12.308;2023-03-31T09:17:40;9.70;99.90
32660;DHT22;19064;47.912;12.308;2023-03-31T09:20:14;9.70;99.90
32660;DHT22;19064;47.912;12.308;2023-03-31T09:22:46;9.80;99.90
32660;DHT22;19064;47.912;12.308;2023-03-31T09:25:17;9.80;99.90
32660;DHT22;19064;47.912;12.308;2023-03-31T09:27:46;9.80;99.90
32660;DHT22;19064;47.912;12.308;2023-03-31T09:30:15;9.80;99.90
32660;DHT22;19064;47.912;12.308;2023-03-31T09:32:45;9.90;99.90
32660;DHT22;19064;47.912;12.308;2023-03-31T09:35:16;10.00;99.90
32660;DHT22;19064;47.912;12.308;2023-03-31T09:37:48;10.00;99.90
32660;DHT22;19064;47.912;12.308;2023-03-31T09:40:16;10.00;99.90
32660;DHT22;19064;47.912;12.308;2023-03-31T09:42:43;10.10;99.90
32660;DHT22;19064;47.912;12.308;2023-03-31T09:45:14;10.10;99.90
32660;DHT22;19064;47.912;12.308;2023-03-31T09:47:43;10.30;99.90
32660;DHT22;19064;47.912;12.308;2023-03-31T09:50:11;10.40;99.90
32660;DHT22;19064;47.912;12.308;2023-03-31T09:52:40;10.50;99.90
32660;DHT22;19064;47.912;12.308;2023-03-31T09:55:19;10.70;99.90
32660;DHT22;19064;47.912;12.308;2023-03-31T09:57:46;10.70;99.90
32660;DHT22;19064;47.912;12.308;2023-03-31T10:00:15;10.70;99.90
32660;DHT22;19064;47.912;12.308;2023-03-31T10:02:44;10.80;99.90
32660;DHT22;19064;47.912;12.308;2023-03-31T10:05:27;10.90;99.90
32660;DHT22;19064;47.912;12.308;2023-03-31T10:08:19;11.00;99.90
32660;DHT22;19064;47.912;12.308;2023-03-31T10:10:52;11.10;99.90
32660;DHT22;19064;47.912;12.308;2023-03-31T10:13:21;11.10;99.90
32660;DHT22;19064;47.912;12.308;2023-03-31T10:15:52;11.20;99.90
32660;DHT22;19064;47.912;12.308;2023-03-31T10:18:30;11.20;99.90
32660;DHT22;19064;47.912;12.308;2023-03-31T10:20:58;11.30;99.90
32660;DHT22;19064;47.912;12.308;2023-03-31T10:23:27;11.30;99.90
32660;DHT22;19064;47.912;12.308;2023-03-31T10:25:56;11.30;99.90
32660;DHT22;19064;47.912;12.308;2023-03-31T10:28:23;11.30;99.90
32660;DHT22;19064;47.912;12.308;2023-03-31T10:30:52;11.40;99.90
32660;DHT22;19064;47.912;12.308;2023-03-31T10:33:22;11.50;99.90
32660;DHT22;19064;47.912;12.308;2023-03-31T10:35:54;11.60;99.90
32660;DHT22;19064;47.912;12.308;2023-03-31T10:38:25;11.60;99.90
32660;DHT22;19064;47.912;12.308;2023-03-31T10:40:54;11.70;99.90
32660;DHT22;19064;47.912;12.308;2023-03-31T10:43:25;11.70;99.90
32660;DHT22;19064;47.912;12.308;2023-03-31T10:45:54;11.70;99.90
32660;DHT22;19064;47.912;12.308;2023-03-31T10:48:24;11.80;99.90
32660;DHT22;19064;47.912;12.308;2023-03-31T10:50:52;11.80;99.90
32660;DHT22;19064;47.912;12.308;2023-03-31T10:53:19;11.80;99.90
32660;DHT22;19064;47.912;12.308;2023-03-31T10:55:55;11.80;99.90
32660;DHT22;19064;47.912;12.308;2023-03-31T10:58:44;11.90;99.90
32660;DHT22;19064;47.912;12.308;2023-03-31T11:01:24;11.80;99.90
32660;DHT22;19064;47.912;12.308;2023-03-31T11:04:04;11.80;99.90
32660;DHT22;19064;47.912;12.308;2023-03-31T11:06:47;11.80;99.90
32660;DHT22;19064;47.912;12.308;2023-03-31T11:09:33;11.70;99.90
32660;DHT22;19064;47.912;12.308;2023-03-31T11:12:08;11.60;99.90
32660;DHT22;19064;47.912;12.308;2023-03-31T11:14:51;11.60;99.90
32660;DHT22;19064;47.912;12.308;2023-03-31T11:17:29;11.60;99.90
32660;DHT22;19064;47.912;12.308;2023-03-31T11:20:07;11.60;99.90
32660;DHT22;19064;47.912;12.308;2023-03-31T11:22:45;11.50;99.90
32660;DHT22;19064;47.912;12.308;2023-03-31T11:25:22;11.50;99.90
32660;DHT22;19064;47.912;12.308;2023-03-31T11:28:13;11.50;99.90
32660;DHT22;19064;47.912;12.308;2023-03-31T11:30:49;11.50;99.90
32660;DHT22;19064;47.912;12.308;2023-03-31T11:33:35;11.50;99.90
32660;DHT22;19064;47.912;12.308;2023-03-31T11:36:19;11.60;99.90
32660;DHT22;19064;47.912;12.308;2023-03-31T11:39:00;11.50;99.90
32660;DHT22;19064;47.912;12.308;2023-03-31T11:41:33;11.50;99.90
32660;DHT22;19064;47.912;12.308;2023-03-31T11:44:03;11.50;99.90
32660;DHT22;19064;47.912;12.308;2023-03-31T11:46:37;11.50;99.90
32660;DHT22;19064;47.912;12.308;2023-03-31T11:49:13;11.40;99.90
32660;DHT22;19064;47.912;12.308;2023-03-31T11:51:46;11.40;99.90
32660;DHT22;19064;47.912;12.308;2023-03-31T11:54:17;11.30;99.90
32660;DHT22;19064;47.912;12.308;2023-03-31T11:56:45;11.40;99.90
32660;DHT22;19064;47.912;12.308;2023-03-31T11:59:15;11.30;99.90
32660;DHT22;19064;47.912;12.308;2023-03-31T12:01:47;11.20;99.90
32660;DHT22;19064;47.912;12.308;2023-03-31T12:04:26;11.00;99.90
32660;DHT22;19064;47.912;12.308;2023-03-31T12:07:02;10.80;99.90
32660;DHT22;19064;47.912;12.308;2023-03-31T12:09:32;10.40;99.90
32660;DHT22;19064;47.912;12.308;2023-03-31T12:12:05;10.10;99.90
32660;DHT22;19064;47.912;12.308;2023-03-31T12:14:35;9.80;99.90
32660;DHT22;19064;47.912;12.308;2023-03-31T12:17:10;9.60;99.90
32660;DHT22;19064;47.912;12.308;2023-03-31T12:19:44;9.30;99.90
32660;DHT22;19064;47.912;12.308;2023-03-31T12:22:14;9.10;99.90
32660;DHT22;19064;47.912;12.308;2023-03-31T12:24:42;9.00;99.90
32660;DHT22;19064;47.912;12.308;2023-03-31T12:27:13;8.90;99.90
32660;DHT22;19064;47.912;12.308;2023-03-31T12:29:44;8.90;99.90
32660;DHT22;19064;47.912;12.308;2023-03-31T12:32:16;8.90;99.90
32660;DHT22;19064;47.912;12.308;2023-03-31T12:34:47;8.90;99.90
32660;DHT22;19064;47.912;12.308;2023-03-31T12:37:41;8.90;99.90
32660;DHT22;19064;47.912;12.308;2023-03-31T12:40:22;8.90;99.90
32660;DHT22;19064;47.912;12.308;2023-03-31T12:43:11;9.10;99.90
32660;DHT22;19064;47.912;12.308;2023-03-31T12:45:49;9.10;99.90
32660;DHT22;19064;47.912;12.308;2023-03-31T12:48:43;9.20;99.90
32660;DHT22;19064;47.912;12.308;2023-03-31T12:51:35;9.20;99.90
32660;DHT22;19064;47.912;12.308;2023-03-31T12:54:17;9.30;99.90
32660;DHT22;19064;47.912;12.308;2023-03-31T12:57:02;9.40;99.90
32660;DHT22;19064;47.912;12.308;2023-03-31T12:59:31;9.30;99.90
32660;DHT22;19064;47.912;12.308;2023-03-31T13:02:23;9.30;99.90
32660;DHT22;19064;47.912;12.308;2023-03-31T13:04:52;9.30;99.90
32660;DHT22;19064;47.912;12.308;2023-03-31T13:07:37;9.50;99.90
32660;DHT22;19064;47.912;12.308;2023-03-31T13:10:27;9.40;99.90
32660;DHT22;19064;47.912;12.308;2023-03-31T13:13:02;9.50;99.90
32660;DHT22;19064;47.912;12.308;2023-03-31T13:15:30;9.50;99.90
32660;DHT22;19064;47.912;12.308;2023-03-31T13:17:59;9.60;99.90
32660;DHT22;19064;47.912;12.308;2023-03-31T13:20:32;9.60;99.90
32660;DHT22;19064;47.912;12.308;2023-03-31T13:23:06;9.50;99.90
32660;DHT22;19064;47.912;12.308;2023-03-31T13:25:45;9.60;99.90
32660;DHT22;19064;47.912;12.308;2023-03-31T13:28:23;9.70;99.90
32660;DHT22;19064;47.912;12.308;2023-03-31T13:30:56;9.70;99.90
32660;DHT22;19064;47.912;12.308;2023-03-31T13:33:31;9.60;99.90
32660;DHT22;19064;47.912;12.308;2023-03-31T13:39:08;9.30;99.90
32660;DHT22;19064;47.912;12.308;2023-03-31T13:41:47;9.10;99.90
32660;DHT22;19064;47.912;12.308;2023-03-31T13:44:41;9.10;99.90
32660;DHT22;19064;47.912;12.308;2023-03-31T13:47:36;9.20;99.90
32660;DHT22;19064;47.912;12.308;2023-03-31T13:50:30;9.10;99.90
32660;DHT22;19064;47.912;12.308;2023-03-31T13:53:06;9.20;99.90
32660;DHT22;19064;47.912;12.308;2023-03-31T13:56:00;9.20;99.90
32660;DHT22;19064;47.912;12.308;2023-03-31T13:58:44;9.20;99.90
32660;DHT22;19064;47.912;12.308;2023-03-31T14:04:21;9.20;99.90
32660;DHT22;19064;47.912;12.308;2023-03-31T14:06:56;9.20;99.90
32660;DHT22;19064;47.912;12.308;2023-03-31T14:09:27;9.10;99.90
32660;DHT22;19064;47.912;12.308;2023-03-31T14:11:57;9.00;99.90
32660;DHT22;19064;47.912;12.308;2023-03-31T14:14:24;9.00;99.90
32660;DHT22;19064;47.912;12.308;2023-03-31T14:16:54;9.00;99.90
32660;DHT22;19064;47.912;12.308;2023-03-31T14:19:37;8.90;99.90
32660;DHT22;19064;47.912;12.308;2023-03-31T14:22:14;8.90;99.90
32660;DHT22;19064;47.912;12.308;2023-03-31T14:24:49;8.80;99.90
32660;DHT22;19064;47.912;12.308;2023-03-31T14:27:29;8.80;99.90
32660;DHT22;19064;47.912;12.308;2023-03-31T14:30:09;8.80;99.90
32660;DHT22;19064;47.912;12.308;2023-03-31T14:32:47;8.80;99.90
32660;DHT22;19064;47.912;12.308;2023-03-31T14:35:26;8.80;99.90
32660;DHT22;19064;47.912;12.308;2023-03-31T14:37:56;8.80;99.90
32660;DHT22;19064;47.912;12.308;2023-03-31T14:40:23;8.70;99.90
32660;DHT22;19064;47.912;12.308;2023-03-31T14:42:53;8.80;99.90
32660;DHT22;19064;47.912;12.308;2023-03-31T14:45:23;8.80;99.90
32660;DHT22;19064;47.912;12.308;2023-03-31T14:47:56;8.70;99.90
32660;DHT22;19064;47.912;12.308;2023-03-31T14:50:29;8.70;99.90
32660;DHT22;19064;47.912;12.308;2023-03-31T14:52:58;8.70;99.90
32660;DHT22;19064;47.912;12.308;2023-03-31T14:55:29;8.80;99.90
32660;DHT22;19064;47.912;12.308;2023-03-31T14:58:00;8.70;99.90
32660;DHT22;19064;47.912;12.308;2023-03-31T15:00:31;8.80;99.90
32660;DHT22;19064;47.912;12.308;2023-03-31T15:03:00;8.90;99.90
32660;DHT22;19064;47.912;12.308;2023-03-31T15:05:31;8.90;99.90
32660;DHT22;19064;47.912;12.308;2023-03-31T15:08:02;8.90;99.90
32660;DHT22;19064;47.912;12.308;2023-03-31T15:10:34;9.00;99.90
32660;DHT22;19064;47.912;12.308;2023-03-31T15:13:08;9.00;99.90
32660;DHT22;19064;47.912;12.308;2023-03-31T15:15:37;9.10;99.90
32660;DHT22;19064;47.912;12.308;2023-03-31T15:18:05;9.20;99.90
32660;DHT22;19064;47.912;12.308;2023-03-31T15:20:35;9.30;99.90
32660;DHT22;19064;47.912;12.308;2023-03-31T15:23:16;9.30;99.90
32660;DHT22;19064;47.912;12.308;2023-03-31T15:25:47;9.40;99.90
32660;DHT22;19064;47.912;12.308;2023-03-31T15:28:16;9.50;99.90
32660;DHT22;19064;47.912;12.308;2023-03-31T15:30:43;9.50;99.90
32660;DHT22;19064;47.912;12.308;2023-03-31T15:33:17;9.50;99.90
32660;DHT22;19064;47.912;12.308;2023-03-31T15:35:45;9.60;99.90
32660;DHT22;19064;47.912;12.308;2023-03-31T15:38:13;9.60;99.90
32660;DHT22;19064;47.912;12.308;2023-03-31T15:40:43;9.70;99.90
32660;DHT22;19064;47.912;12.308;2023-03-31T15:43:16;9.70;99.90
32660;DHT22;19064;47.912;12.308;2023-03-31T15:45:49;9.70;99.90
32660;DHT22;19064;47.912;12.308;2023-03-31T15:48:22;9.80;99.90
32660;DHT22;19064;47.912;12.308;2023-03-31T15:50:50;9.80;99.90
32660;DHT22;19064;47.912;12.308;2023-03-31T15:53:29;9.80;99.90
32660;DHT22;19064;47.912;12.308;2023-03-31T15:55:57;9.80;99.90
32660;DHT22;19064;47.912;12.308;2023-03-31T15:58:46;9.80;99.90
32660;DHT22;19064;47.912;12.308;2023-03-31T16:01:14;9.80;99.90
32660;DHT22;19064;47.912;12.308;2023-03-31T16:03:42;9.80;99.90
32660;DHT22;19064;47.912;12.308;2023-03-31T16:06:16;9.70;99.90